Wetterdaten: aktuell Sonntag, 24.05.2020 23:15
Datum Zeit Temp. 2m rel. Feuchte Luftdruck Regen Wind Richtung Richtung Sonne ET UV-Index Solar Taupunkt Ben
24.05.2020 23:15 12,9 C 90 % 1031,2 hPa 0,0 mm 1,9 km/h (1 Bft) N-NW 343 0 min 0,0 mm 0,0 UV-I 0 W/m 11,3 C 6,7 km/h (2 Bft)
24.05.2020 22:15 12,7 C 90 % 1031,1 hPa 0,0 mm 1,9 km/h (1 Bft) N-NW 348 0 min 0,0 mm 0,0 UV-I 0 W/m 11,1 C 4,4 km/h (1 Bft)
24.05.2020 21:15 13,3 C 85 % 1031,0 hPa 0,0 mm 0,9 km/h (0 Bft) NO 45 0 min 0,0 mm 0,0 UV-I 1 W/m 10,8 C 2,2 km/h (1 Bft)
24.05.2020 20:15 14,9 C 78 % 1030,3 hPa 0,0 mm 1,0 km/h (0 Bft) NO 49 5 min 0,1 mm 0,0 UV-I 39 W/m 11,1 C 6,7 km/h (2 Bft)
24.05.2020 19:15 15,9 C 68 % 1030,0 hPa 0,0 mm 9,0 km/h (2 Bft) N 8 0 min 0,1 mm 0,0 UV-I 28 W/m 10,0 C 26,7 km/h (4 Bft)
24.05.2020 18:15 16,3 C 69 % 1029,7 hPa 0,0 mm 8,6 km/h (2 Bft) N 351 10 min 0,1 mm 0,4 UV-I 257 W/m 10,6 C 28,9 km/h (5 Bft)
24.05.2020 17:15 16,1 C 68 % 1029,5 hPa 0,0 mm 3,8 km/h (1 Bft) SO 134 25 min 0,2 mm 0,7 UV-I 312 W/m 10,2 C 13,3 km/h (3 Bft)
24.05.2020 16:15 16,7 C 64 % 1029,1 hPa 0,0 mm 10,9 km/h (2 Bft) N-NO 20 5 min 0,2 mm 1,1 UV-I 359 W/m 9,9 C 33,3 km/h (5 Bft)
24.05.2020 15:15 16,3 C 63 % 1028,9 hPa 0,0 mm 12,9 km/h (3 Bft) N 352 0 min 0,2 mm 1,0 UV-I 298 W/m 9,2 C 40,0 km/h (6 Bft)
24.05.2020 14:15 16,6 C 59 % 1028,4 hPa 0,0 mm 10,2 km/h (2 Bft) N-NW 334 0 min 0,3 mm 0,0 UV-I 117 W/m 8,6 C 28,9 km/h (5 Bft)
24.05.2020 13:15 17,6 C 55 % 1028,0 hPa 0,0 mm 15,6 km/h (3 Bft) O 84 10 min 0,2 mm 2,6 UV-I 564 W/m 8,5 C 37,8 km/h (5 Bft)
24.05.2020 12:15 16,3 C 56 % 1028,1 hPa 0,0 mm 15,3 km/h (3 Bft) N 351 35 min 0,4 mm 1,3 UV-I 413 W/m 7,5 C 33,3 km/h (5 Bft)
24.05.2020 11:15 15,4 C 59 % 1028,1 hPa 0,0 mm 15,5 km/h (3 Bft) N-NW 334 45 min 0,3 mm 2,7 UV-I 924 W/m 7,4 C 37,8 km/h (5 Bft)
24.05.2020 10:15 14,0 C 68 % 1028,5 hPa 0,0 mm 13,6 km/h (3 Bft) O 84 35 min 0,2 mm 0,9 UV-I 235 W/m 8,2 C 26,7 km/h (4 Bft)
24.05.2020 09:15 13,1 C 73 % 1028,4 hPa 0,0 mm 12,9 km/h (3 Bft) O 84 5 min 0,1 mm 0,5 UV-I 303 W/m 8,4 C 22,2 km/h (4 Bft)
24.05.2020 08:15 12,0 C 76 % 1028,2 hPa 0,0 mm 12,6 km/h (3 Bft) O 84 15 min 0,1 mm 0,0 UV-I 181 W/m 7,9 C 28,9 km/h (5 Bft)
24.05.2020 07:15 10,9 C 78 % 1027,7 hPa 0,0 mm 9,0 km/h (2 Bft) O 84 60 min 0,0 mm 0,0 UV-I 148 W/m 7,2 C 17,8 km/h (3 Bft)
24.05.2020 06:15 10,4 C 77 % 1027,1 hPa 0,0 mm 8,0 km/h (2 Bft) O 84 25 min 0,0 mm 0,0 UV-I 48 W/m 6,5 C 17,8 km/h (3 Bft)
24.05.2020 05:15 10,3 C 73 % 1026,8 hPa 0,0 mm 8,8 km/h (2 Bft) N-NW 332 0 min 0,0 mm 0,0 UV-I 0 W/m 5,7 C 17,8 km/h (3 Bft)
24.05.2020 04:15 10,7 C 70 % 1026,4 hPa 0,0 mm 11,5 km/h (2 Bft) N 350 0 min 0,0 mm 0,0 UV-I 0 W/m 5,5 C 24,4 km/h (4 Bft)
24.05.2020 03:15 11,0 C 66 % 1026,2 hPa 0,0 mm 10,0 km/h (2 Bft) W-NW 302 0 min 0,0 mm 0,0 UV-I 0 W/m 4,9 C 17,8 km/h (3 Bft)
24.05.2020 02:15 11,8 C 62 % 1026,2 hPa 0,0 mm 8,4 km/h (2 Bft) W-NW 282 0 min 0,0 mm 0,0 UV-I 0 W/m 4,8 C 15,5 km/h (3 Bft)
24.05.2020 01:15 12,4 C 59 % 1026,2 hPa 0,0 mm 7,7 km/h (2 Bft) N 5 0 min 0,0 mm 0,0 UV-I 0 W/m 4,6 C 13,3 km/h (3 Bft)
24.05.2020 00:15 12,7 C 56 % 1026,4 hPa 0,0 mm 8,0 km/h (2 Bft) O 84 0 min 0,0 mm 0,0 UV-I 0 W/m 4,2 C 17,8 km/h (3 Bft)
24.05.2020 00:00 13,0 C 55 % 1026,4 hPa 0,0 mm 8,0 km/h (2 Bft) O 84 0 min 0,0 mm 0,0 UV-I 0 W/m 4,2 C 15,5 km/h (3 Bft)
_ Min-Zeit 05:30 13:30 01:40 - 21:50 - - - - - - 00:20 21:50
Minimum _ 10,2 C 53 % 1026,1 hPa - 0,0 km/h (0 Bft) - - - - - - 4,1 C 0,0 km/h (0 Bft)
_ Max-Zeit 13:30 22:05 23:05 00:00 12:55 - - 05:45 12:00 13:25 11:20 23:05 13:00
Maximum _ 17,8 C 90 % 1031,3 hPa 0,0 mm 21,9 km/h
N-NW (4 Bft)
- - 5 min 0,4 mm 4,0 UV-I 957 W/m 11,3 C 46,6 km/h
N (6 Bft)
Durchschnitt _ 13,8 C 69 % 1028,4 hPa #0,0 mm 8,9 km/h (2 Bft) O - #4:35 h #2,489 mm 1,2 UV-I 270 W/m 8,1 C 22,1 km/h (4 Bft)



© 1998 - 2020 www.pulheimwetter.de